createdAt,value
2017-12-29T00:00:39.967Z,3.76
2017-12-29T00:01:39.984Z,3.78
2017-12-29T00:02:39.989Z,3.76
2017-12-29T00:03:40.001Z,3.76
2017-12-29T00:04:40.012Z,3.76
2017-12-29T00:05:40.029Z,3.78
2017-12-29T00:06:40.035Z,3.84
2017-12-29T00:07:40.047Z,3.79
2017-12-29T00:08:40.057Z,3.70
2017-12-29T00:09:40.077Z,3.78
2017-12-29T00:10:40.099Z,3.79
2017-12-29T00:11:40.109Z,3.87
2017-12-29T00:12:40.101Z,3.84
2017-12-29T00:13:40.124Z,3.86
2017-12-29T00:14:40.133Z,3.80
2017-12-29T00:15:40.137Z,3.88
2017-12-29T00:16:40.145Z,3.79
2017-12-29T00:17:40.159Z,3.84
2017-12-29T00:18:40.168Z,3.83
2017-12-29T00:19:40.181Z,3.75
2017-12-29T00:20:40.193Z,3.86
2017-12-29T00:21:40.200Z,3.80
2017-12-29T00:22:40.210Z,3.87
2017-12-29T00:23:40.222Z,3.78
2017-12-29T00:24:40.235Z,3.79
2017-12-29T00:25:40.245Z,3.80
2017-12-29T00:26:40.260Z,3.75
2017-12-29T00:27:40.269Z,3.79
2017-12-29T00:28:40.277Z,3.78
2017-12-29T00:29:40.288Z,3.73
2017-12-29T00:30:40.304Z,3.75
2017-12-29T00:31:40.311Z,3.69
2017-12-29T00:32:40.323Z,3.70
2017-12-29T00:33:40.331Z,3.75
2017-12-29T00:34:40.343Z,3.72
2017-12-29T00:35:40.356Z,3.66
2017-12-29T00:36:40.366Z,3.65
2017-12-29T00:37:40.375Z,3.70
2017-12-29T00:38:40.387Z,3.65
2017-12-29T00:39:40.402Z,3.68
2017-12-29T00:40:40.413Z,3.66
2017-12-29T00:41:40.419Z,3.60
2017-12-29T00:42:40.435Z,3.61
2017-12-29T00:43:40.446Z,3.60
2017-12-29T00:44:40.453Z,3.66
2017-12-29T00:45:40.464Z,3.65
2017-12-29T00:46:40.478Z,3.68
2017-12-29T00:47:40.488Z,3.68
2017-12-29T00:48:40.499Z,3.61
2017-12-29T00:49:40.510Z,3.52
2017-12-29T00:50:40.520Z,3.58
2017-12-29T00:51:40.530Z,3.52
2017-12-29T00:52:40.542Z,3.52
2017-12-29T00:53:40.551Z,3.58
2017-12-29T00:54:40.565Z,3.58
2017-12-29T00:55:40.580Z,3.52
2017-12-29T00:56:40.608Z,3.51
2017-12-29T00:57:40.598Z,3.52
2017-12-29T00:58:40.608Z,3.55
2017-12-29T00:59:40.619Z,3.60
2017-12-29T01:00:40.630Z,3.58
2017-12-29T01:01:40.640Z,3.52
2017-12-29T01:02:40.656Z,3.57
2017-12-29T01:03:40.657Z,3.60
2017-12-29T01:04:40.667Z,3.51
2017-12-29T01:05:40.678Z,3.61
2017-12-29T01:06:40.688Z,3.58
2017-12-29T01:07:40.703Z,3.62
2017-12-29T01:08:40.712Z,3.54
2017-12-29T01:09:40.729Z,3.61
2017-12-29T01:10:40.734Z,3.51
2017-12-29T01:11:40.744Z,3.55
2017-12-29T01:12:40.757Z,3.55
2017-12-29T01:13:40.768Z,3.50
2017-12-29T01:14:40.778Z,3.47
2017-12-29T01:15:40.790Z,3.48
2017-12-29T01:16:40.800Z,3.50
2017-12-29T01:17:40.814Z,3.47
2017-12-29T01:18:40.824Z,3.47
2017-12-29T01:19:40.834Z,3.43
2017-12-29T01:20:40.848Z,3.60
2017-12-29T01:21:40.856Z,3.55
2017-12-29T01:22:40.872Z,3.52
2017-12-29T01:23:40.878Z,3.48
2017-12-29T01:24:40.891Z,3.45
2017-12-29T01:25:40.901Z,3.52
2017-12-29T01:26:40.911Z,3.50
2017-12-29T01:27:40.922Z,3.36
2017-12-29T01:28:40.937Z,3.50
2017-12-29T01:29:40.943Z,3.50
2017-12-29T01:30:40.955Z,3.50
2017-12-29T01:31:40.966Z,3.40
2017-12-29T01:32:40.981Z,3.33
2017-12-29T01:33:40.987Z,3.43
2017-12-29T01:34:41.000Z,3.40
2017-12-29T01:35:41.011Z,3.35
2017-12-29T01:36:41.021Z,3.33
2017-12-29T01:37:41.034Z,3.31
2017-12-29T01:38:41.046Z,3.33
2017-12-29T01:39:41.054Z,3.29
2017-12-29T01:40:41.066Z,3.29
2017-12-29T01:41:41.076Z,3.21
2017-12-29T01:42:41.085Z,3.21
2017-12-29T01:43:41.098Z,3.18
2017-12-29T01:44:41.109Z,3.20
2017-12-29T01:45:41.119Z,3.20
2017-12-29T01:46:41.130Z,3.15
2017-12-29T01:47:41.147Z,3.11
2017-12-29T01:48:41.158Z,3.13
2017-12-29T01:49:41.162Z,3.15
2017-12-29T01:50:41.179Z,3.06
2017-12-29T01:51:41.186Z,3.13
2017-12-29T01:52:41.196Z,3.00
2017-12-29T01:53:41.211Z,3.06
2017-12-29T01:54:41.219Z,3.00
2017-12-29T01:55:41.228Z,3.10
2017-12-29T01:56:41.240Z,2.99
2017-12-29T01:57:41.251Z,3.00
2017-12-29T01:58:41.267Z,2.99
2017-12-29T01:59:41.272Z,3.03
2017-12-29T02:00:41.282Z,2.99
2017-12-29T02:01:41.295Z,2.99
2017-12-29T02:02:41.305Z,2.97
2017-12-29T02:03:41.314Z,2.92
2017-12-29T02:04:41.340Z,2.95
2017-12-29T02:05:41.340Z,2.90
2017-12-29T02:06:41.352Z,2.89
2017-12-29T02:07:41.360Z,2.87
2017-12-29T02:08:41.369Z,2.90
2017-12-29T02:09:41.378Z,2.95
2017-12-29T02:10:41.393Z,2.85
2017-12-29T02:11:41.401Z,2.90
2017-12-29T02:12:41.415Z,2.87
2017-12-29T02:13:41.423Z,2.92
2017-12-29T02:14:41.437Z,2.82
2017-12-29T02:15:41.446Z,2.82
2017-12-29T02:16:41.453Z,2.74
2017-12-29T02:17:41.463Z,2.81
2017-12-29T02:18:41.474Z,2.82
2017-12-29T02:19:41.487Z,2.78
2017-12-29T02:20:41.510Z,2.78
2017-12-29T02:21:41.507Z,2.75
2017-12-29T02:22:41.518Z,2.74
2017-12-29T02:23:41.530Z,2.71
2017-12-29T02:24:41.542Z,2.72
2017-12-29T02:25:41.550Z,2.67
2017-12-29T02:26:41.561Z,2.69
2017-12-29T02:27:41.572Z,2.71
2017-12-29T02:28:41.583Z,2.74
2017-12-29T02:29:41.592Z,2.69
2017-12-29T02:30:41.602Z,2.74
2017-12-29T02:31:41.614Z,2.77
2017-12-29T02:32:41.625Z,2.69
2017-12-29T02:33:41.639Z,2.60
2017-12-29T02:34:41.645Z,2.63
2017-12-29T02:35:41.657Z,2.69
2017-12-29T02:36:41.666Z,2.63
2017-12-29T02:37:41.676Z,2.72
2017-12-29T02:38:41.688Z,2.63
2017-12-29T02:39:41.696Z,2.69
2017-12-29T02:40:41.708Z,2.69
2017-12-29T02:41:41.718Z,2.61
2017-12-29T02:42:41.728Z,2.54
2017-12-29T02:43:41.738Z,2.57
2017-12-29T02:44:41.749Z,2.53
2017-12-29T02:45:41.765Z,2.48
2017-12-29T02:46:41.770Z,2.56
2017-12-29T02:47:41.781Z,2.59
2017-12-29T02:48:41.792Z,2.43
2017-12-29T02:49:41.803Z,2.52
2017-12-29T02:50:41.813Z,2.41
2017-12-29T02:51:41.823Z,2.45
2017-12-29T02:52:41.833Z,2.41
2017-12-29T02:53:41.845Z,2.45
2017-12-29T02:54:41.862Z,2.45
2017-12-29T02:55:41.866Z,2.49
2017-12-29T02:56:41.875Z,2.42
2017-12-29T02:57:41.884Z,2.46
2017-12-29T02:58:41.894Z,2.45
2017-12-29T02:59:41.905Z,2.54
2017-12-29T03:00:41.916Z,2.42
2017-12-29T03:01:41.928Z,2.41
2017-12-29T03:02:41.938Z,2.52
2017-12-29T03:03:41.947Z,2.46
2017-12-29T03:04:41.958Z,2.41
2017-12-29T03:05:41.969Z,2.42
2017-12-29T03:06:41.978Z,2.38
2017-12-29T03:07:41.988Z,2.30
2017-12-29T03:08:41.999Z,2.35
2017-12-29T03:09:42.009Z,2.30
2017-12-29T03:10:42.020Z,2.31
2017-12-29T03:11:42.031Z,2.30
2017-12-29T03:12:42.040Z,2.25
2017-12-29T03:13:42.050Z,2.27
2017-12-29T03:14:42.063Z,2.27
2017-12-29T03:15:42.072Z,2.25
2017-12-29T03:16:42.082Z,2.28
2017-12-29T03:17:42.091Z,2.35
2017-12-29T03:18:42.104Z,2.28
2017-12-29T03:19:42.112Z,2.31
2017-12-29T03:20:42.124Z,2.35
2017-12-29T03:21:42.131Z,2.25
2017-12-29T03:22:42.142Z,2.30
2017-12-29T03:23:42.153Z,2.31
2017-12-29T03:24:42.163Z,2.24
2017-12-29T03:25:42.176Z,2.30
2017-12-29T03:26:42.185Z,2.27
2017-12-29T03:27:42.196Z,2.18
2017-12-29T03:28:42.205Z,2.23
2017-12-29T03:29:42.221Z,2.23
2017-12-29T03:30:42.226Z,2.25
2017-12-29T03:31:42.236Z,2.23
2017-12-29T03:32:42.246Z,2.20
2017-12-29T03:33:42.256Z,2.20
2017-12-29T03:34:42.268Z,2.21
2017-12-29T03:35:42.280Z,2.20
2017-12-29T03:36:42.289Z,2.18
2017-12-29T03:37:42.301Z,2.17
2017-12-29T03:38:42.313Z,2.18
2017-12-29T03:39:42.318Z,2.21
2017-12-29T03:40:42.329Z,2.12
2017-12-29T03:41:42.339Z,2.14
2017-12-29T03:42:42.348Z,2.16
2017-12-29T03:43:42.360Z,2.16
2017-12-29T03:44:42.369Z,2.16
2017-12-29T03:45:42.382Z,2.09
2017-12-29T03:46:42.389Z,2.14
2017-12-29T03:47:42.401Z,2.16
2017-12-29T03:48:42.410Z,2.14
2017-12-29T03:49:42.420Z,2.16
2017-12-29T03:50:42.431Z,2.10
2017-12-29T03:51:42.441Z,2.14
2017-12-29T03:52:42.452Z,2.07
2017-12-29T03:53:42.462Z,2.10
2017-12-29T03:54:42.471Z,2.06
2017-12-29T03:55:42.483Z,2.09
2017-12-29T03:56:42.494Z,2.10
2017-12-29T03:57:42.502Z,2.14
2017-12-29T03:58:42.512Z,2.09
2017-12-29T03:59:42.524Z,2.09
2017-12-29T04:00:42.541Z,2.12
2017-12-29T04:01:42.544Z,2.12
2017-12-29T04:02:42.554Z,2.09
2017-12-29T04:03:42.566Z,2.14
2017-12-29T04:04:42.576Z,2.09
2017-12-29T04:05:42.584Z,2.10
2017-12-29T04:06:42.594Z,2.10
2017-12-29T04:07:42.611Z,2.09
2017-12-29T04:08:42.614Z,2.03
2017-12-29T04:09:42.625Z,2.05
2017-12-29T04:10:42.640Z,2.09
2017-12-29T04:11:42.647Z,2.07
2017-12-29T04:12:42.656Z,2.07
2017-12-29T04:13:42.668Z,2.09
2017-12-29T04:14:42.691Z,2.06
2017-12-29T04:15:42.686Z,2.03
2017-12-29T04:16:42.697Z,2.05
2017-12-29T04:17:42.709Z,1.99
2017-12-29T04:18:42.716Z,1.99
2017-12-29T04:19:42.727Z,2.12
2017-12-29T04:20:42.739Z,2.03
2017-12-29T04:21:42.748Z,2.09
2017-12-29T04:22:42.758Z,2.09
2017-12-29T04:23:42.769Z,2.09
2017-12-29T04:24:42.779Z,1.99
2017-12-29T04:25:42.790Z,1.99
2017-12-29T04:26:42.803Z,1.99
2017-12-29T04:27:42.810Z,2.02
2017-12-29T04:28:42.821Z,1.99
2017-12-29T04:29:42.835Z,1.99
2017-12-29T04:30:42.842Z,2.06
2017-12-29T04:31:42.852Z,2.00
2017-12-29T04:32:42.861Z,2.03
2017-12-29T04:33:42.872Z,1.98
2017-12-29T04:34:42.882Z,1.95
2017-12-29T04:35:42.892Z,1.95
2017-12-29T04:36:42.902Z,2.03
2017-12-29T04:37:42.912Z,1.93
2017-12-29T04:38:42.922Z,2.03
2017-12-29T04:39:42.934Z,2.00
2017-12-29T04:40:42.944Z,1.95
2017-12-29T04:41:42.953Z,2.02
2017-12-29T04:42:42.974Z,2.02
2017-12-29T04:43:42.976Z,1.98
2017-12-29T04:44:42.985Z,1.98
2017-12-29T04:45:42.994Z,2.03
2017-12-29T04:46:43.104Z,1.93
2017-12-29T04:47:43.016Z,1.93
2017-12-29T04:48:43.026Z,1.93
2017-12-29T04:49:43.036Z,2.06
2017-12-29T04:50:43.047Z,2.06
2017-12-29T04:51:43.057Z,2.02
2017-12-29T04:52:43.066Z,2.03
2017-12-29T04:53:43.079Z,2.00
2017-12-29T04:54:43.088Z,2.00
2017-12-29T04:55:43.102Z,2.02
2017-12-29T04:56:43.112Z,1.98
2017-12-29T04:57:43.122Z,2.00
2017-12-29T04:58:43.130Z,2.02
2017-12-29T04:59:43.138Z,1.98
2017-12-29T05:00:43.148Z,1.99
2017-12-29T05:01:43.159Z,1.98
2017-12-29T05:02:43.171Z,2.03
2017-12-29T05:03:43.180Z,2.07
2017-12-29T05:04:43.191Z,1.95
2017-12-29T05:05:43.199Z,1.95
2017-12-29T05:06:43.210Z,2.03
2017-12-29T05:07:43.223Z,1.93
2017-12-29T05:08:43.232Z,2.00
2017-12-29T05:09:43.242Z,1.98
2017-12-29T05:10:43.252Z,2.02
2017-12-29T05:11:43.276Z,1.91
2017-12-29T05:12:43.273Z,1.91
2017-12-29T05:13:43.281Z,1.99
2017-12-29T05:14:43.291Z,1.99
2017-12-29T05:15:43.304Z,2.05
2017-12-29T05:16:43.316Z,2.00
2017-12-29T05:17:43.528Z,1.99
2017-12-29T05:18:43.335Z,2.00
2017-12-29T05:19:43.346Z,1.99
2017-12-29T05:20:43.355Z,1.93
2017-12-29T05:21:43.367Z,1.88
2017-12-29T05:22:43.377Z,1.87
2017-12-29T05:23:43.387Z,1.88
2017-12-29T05:24:43.398Z,1.88
2017-12-29T05:25:43.407Z,1.93
2017-12-29T05:26:43.425Z,1.88
2017-12-29T05:27:43.427Z,1.79
2017-12-29T05:28:43.441Z,1.83
2017-12-29T05:29:43.449Z,1.84
2017-12-29T05:30:43.457Z,1.79
2017-12-29T05:31:43.467Z,1.77
2017-12-29T05:32:43.477Z,1.69
2017-12-29T05:33:43.487Z,1.79
2017-12-29T05:34:43.500Z,1.77
2017-12-29T05:35:43.507Z,1.72
2017-12-29T05:36:43.525Z,1.79
2017-12-29T05:37:43.628Z,1.73
2017-12-29T05:38:43.538Z,1.73
2017-12-29T05:39:43.547Z,1.60
2017-12-29T05:40:43.559Z,1.60
2017-12-29T05:41:43.569Z,1.62
2017-12-29T05:42:43.580Z,1.66
2017-12-29T05:43:43.592Z,1.63
2017-12-29T05:44:43.598Z,1.60
2017-12-29T05:45:43.610Z,1.72
2017-12-29T05:46:43.619Z,1.65
2017-12-29T05:47:43.644Z,1.66
2017-12-29T05:48:43.640Z,1.62
2017-12-29T05:49:43.648Z,1.62
2017-12-29T05:50:43.660Z,1.66
2017-12-29T05:51:43.672Z,1.63
2017-12-29T05:52:43.681Z,1.63
2017-12-29T05:53:43.690Z,1.62
2017-12-29T05:54:43.698Z,1.58
2017-12-29T05:55:43.710Z,1.60
2017-12-29T05:56:43.719Z,1.60
2017-12-29T05:57:43.730Z,1.58
2017-12-29T05:58:43.746Z,1.51
2017-12-29T05:59:43.751Z,1.58
2017-12-29T06:00:43.760Z,1.54
2017-12-29T06:01:43.770Z,1.60
2017-12-29T06:02:43.780Z,1.58
2017-12-29T06:03:43.789Z,1.62
2017-12-29T06:04:43.798Z,1.48
2017-12-29T06:05:43.813Z,1.48
2017-12-29T06:06:43.820Z,1.51
2017-12-29T06:07:43.831Z,1.48
2017-12-29T06:08:43.840Z,1.48
2017-12-29T06:09:43.849Z,1.50
2017-12-29T06:10:43.861Z,1.48
2017-12-29T06:11:43.917Z,1.48
2017-12-29T06:12:43.887Z,1.48
2017-12-29T06:13:43.889Z,1.45
2017-12-29T06:14:43.912Z,1.48
2017-12-29T06:15:43.909Z,1.45
2017-12-29T06:16:43.920Z,1.44
2017-12-29T06:17:43.934Z,1.44
2017-12-29T06:18:43.940Z,1.45
2017-12-29T06:19:43.968Z,1.45
2017-12-29T06:20:43.962Z,1.44
2017-12-29T06:21:43.971Z,1.50
2017-12-29T06:22:43.984Z,1.48
2017-12-29T06:23:43.989Z,1.48
2017-12-29T06:24:44.001Z,1.52
2017-12-29T06:25:44.015Z,1.42
2017-12-29T06:26:44.019Z,1.54
2017-12-29T06:28:44.040Z,1.48
2017-12-29T06:29:44.049Z,1.48
2017-12-29T06:30:44.059Z,1.44
2017-12-29T06:31:44.071Z,1.55
2017-12-29T06:32:44.581Z,1.45
2017-12-29T06:33:44.092Z,1.51
2017-12-29T06:34:44.100Z,1.55
2017-12-29T06:35:44.111Z,1.44
2017-12-29T06:36:44.120Z,1.54
2017-12-29T06:37:44.133Z,1.47
2017-12-29T06:38:44.141Z,1.52
2017-12-29T06:39:44.162Z,1.55
2017-12-29T06:40:44.159Z,1.54
2017-12-29T06:41:44.183Z,1.55
2017-12-29T06:42:44.180Z,1.51
2017-12-29T06:43:44.195Z,1.52
2017-12-29T06:44:44.203Z,1.47
2017-12-29T06:45:44.211Z,1.50
2017-12-29T06:46:44.222Z,1.47
2017-12-29T06:47:44.232Z,1.54
2017-12-29T06:48:44.239Z,1.45
2017-12-29T06:49:44.249Z,1.54
2017-12-29T06:50:44.259Z,1.52
2017-12-29T06:51:44.275Z,1.51
2017-12-29T06:52:44.278Z,1.58
2017-12-29T06:53:44.308Z,1.48
2017-12-29T06:54:44.306Z,1.55
2017-12-29T06:55:44.309Z,1.52
2017-12-29T06:56:44.318Z,1.59
2017-12-29T06:57:44.336Z,1.59
2017-12-29T06:58:46.254Z,1.51
2017-12-29T06:59:44.363Z,1.51
2017-12-29T07:00:44.358Z,1.52
2017-12-29T07:01:44.441Z,1.42
2017-12-29T07:02:44.388Z,1.47
2017-12-29T07:03:44.391Z,1.45
2017-12-29T07:04:44.404Z,1.45
2017-12-29T07:05:44.411Z,1.47
2017-12-29T07:06:44.421Z,1.41
2017-12-29T07:07:44.429Z,1.37
2017-12-29T07:08:44.438Z,1.41
2017-12-29T07:09:44.446Z,1.42
2017-12-29T07:10:44.468Z,1.37
2017-12-29T07:11:44.472Z,1.34
2017-12-29T07:12:44.477Z,1.42
2017-12-29T07:13:44.487Z,1.41
2017-12-29T07:14:44.498Z,1.36
2017-12-29T07:15:44.507Z,1.51
2017-12-29T07:16:44.523Z,1.42
2017-12-29T07:17:44.529Z,1.40
2017-12-29T07:18:44.538Z,1.41
2017-12-29T07:19:44.547Z,1.34
2017-12-29T07:20:44.558Z,1.36
2017-12-29T07:21:44.570Z,1.40
2017-12-29T07:22:44.575Z,1.36
2017-12-29T07:23:44.586Z,1.30
2017-12-29T07:24:44.598Z,1.36
2017-12-29T07:25:44.604Z,1.34
2017-12-29T07:26:44.616Z,1.34
2017-12-29T07:27:44.633Z,1.34
2017-12-29T07:28:44.635Z,1.33
2017-12-29T07:29:44.646Z,1.27
2017-12-29T07:30:44.656Z,1.29
2017-12-29T07:31:44.665Z,1.30
2017-12-29T07:32:44.683Z,1.37
2017-12-29T07:33:44.687Z,1.40
2017-12-29T07:34:44.698Z,1.32
2017-12-29T07:35:48.932Z,1.36
2017-12-29T07:36:45.941Z,1.36
2017-12-29T07:37:44.725Z,1.29
2017-12-29T07:38:46.094Z,1.29
2017-12-29T07:39:44.744Z,1.34
2017-12-29T07:40:44.757Z,1.29
2017-12-29T07:41:44.765Z,1.37
2017-12-29T07:42:44.774Z,1.36
2017-12-29T07:43:44.788Z,1.33
2017-12-29T07:44:44.804Z,1.36
2017-12-29T07:45:44.802Z,1.32
2017-12-29T07:46:44.944Z,1.26
2017-12-29T07:47:44.825Z,1.32
2017-12-29T07:48:44.832Z,1.29
2017-12-29T07:49:44.851Z,1.32
2017-12-29T07:50:44.853Z,1.26
2017-12-29T07:51:44.865Z,1.36
2017-12-29T07:52:44.873Z,1.29
2017-12-29T07:53:44.883Z,1.34
2017-12-29T07:54:44.892Z,1.40
2017-12-29T07:55:44.904Z,1.30
2017-12-29T07:56:44.917Z,1.34
2017-12-29T07:57:44.928Z,1.40
2017-12-29T07:58:44.932Z,1.37
2017-12-29T08:00:44.955Z,1.37
2017-12-29T08:01:44.963Z,1.32
2017-12-29T08:02:44.972Z,1.34
2017-12-29T08:03:44.983Z,1.41
2017-12-29T08:04:44.994Z,1.36
2017-12-29T08:05:45.003Z,1.37
2017-12-29T08:06:45.014Z,1.42
2017-12-29T08:07:45.071Z,1.42
2017-12-29T08:08:45.033Z,1.40
2017-12-29T08:09:45.044Z,1.40
2017-12-29T08:10:45.057Z,1.41
2017-12-29T08:11:45.067Z,1.42
2017-12-29T08:12:45.078Z,1.41
2017-12-29T08:13:45.100Z,1.41
2017-12-29T08:14:45.099Z,1.36
2017-12-29T08:15:45.106Z,1.41
2017-12-29T08:16:45.117Z,1.37
2017-12-29T08:17:45.128Z,1.44
2017-12-29T08:18:45.138Z,1.41
2017-12-29T08:19:45.161Z,1.47
2017-12-29T08:20:45.155Z,1.50
2017-12-29T08:21:45.168Z,1.48
2017-12-29T08:22:45.190Z,1.40
2017-12-29T08:23:45.192Z,1.52
2017-12-29T08:24:45.197Z,1.52
2017-12-29T08:25:45.232Z,1.55
2017-12-29T08:26:45.218Z,1.51
2017-12-29T08:27:45.229Z,1.45
2017-12-29T08:28:45.242Z,1.54
2017-12-29T08:29:45.248Z,1.47
2017-12-29T08:30:45.260Z,1.48
2017-12-29T08:31:45.275Z,1.48
2017-12-29T08:32:45.276Z,1.47
2017-12-29T08:33:45.287Z,1.52
2017-12-29T08:34:45.302Z,1.59
2017-12-29T08:35:45.306Z,1.60
2017-12-29T08:36:45.344Z,1.59
2017-12-29T08:37:45.329Z,1.59
2017-12-29T08:38:45.339Z,1.58
2017-12-29T08:39:45.350Z,1.59
2017-12-29T08:40:45.359Z,1.62
2017-12-29T08:41:45.366Z,1.58
2017-12-29T08:42:45.382Z,1.60
2017-12-29T08:43:45.390Z,1.65
2017-12-29T08:44:45.405Z,1.63
2017-12-29T08:45:45.409Z,1.70
2017-12-29T08:46:45.424Z,1.72
2017-12-29T08:47:45.429Z,1.70
2017-12-29T08:48:45.441Z,1.76
2017-12-29T08:49:45.455Z,1.73
2017-12-29T08:50:45.460Z,1.73
2017-12-29T08:51:45.471Z,1.79
2017-12-29T08:52:45.484Z,1.79
2017-12-29T08:53:45.491Z,1.83
2017-12-29T08:54:45.500Z,1.76
2017-12-29T08:55:45.512Z,1.83
2017-12-29T08:56:45.723Z,1.81
2017-12-29T08:57:45.532Z,1.86
2017-12-29T08:58:45.542Z,1.84
2017-12-29T08:59:45.553Z,1.98
2017-12-29T09:00:45.563Z,1.90
2017-12-29T09:01:45.572Z,2.02
2017-12-29T09:02:45.582Z,1.99
2017-12-29T09:03:45.617Z,2.02
2017-12-29T09:04:45.605Z,2.00
2017-12-29T09:05:45.615Z,2.00
2017-12-29T09:06:45.625Z,1.91
2017-12-29T09:07:45.635Z,2.03
2017-12-29T09:08:46.046Z,1.95
2017-12-29T09:09:45.661Z,2.03
2017-12-29T09:10:45.665Z,1.99
2017-12-29T09:11:45.676Z,2.07
2017-12-29T09:12:45.687Z,2.06
2017-12-29T09:13:45.696Z,2.02
2017-12-29T09:14:45.708Z,2.02
2017-12-29T09:15:45.718Z,2.02
2017-12-29T09:16:45.930Z,2.02
2017-12-29T09:17:45.749Z,2.09
2017-12-29T09:18:46.739Z,2.07
2017-12-29T09:19:46.677Z,2.10
2017-12-29T09:20:45.996Z,2.12
2017-12-29T09:21:45.780Z,2.10
2017-12-29T09:22:45.790Z,2.14
2017-12-29T09:23:46.004Z,2.24
2017-12-29T09:24:45.812Z,2.23
2017-12-29T09:25:45.822Z,2.20
2017-12-29T09:26:46.043Z,2.21
2017-12-29T09:27:45.963Z,2.17
2017-12-29T09:28:46.072Z,2.20
2017-12-29T09:29:45.865Z,2.25
2017-12-29T09:30:45.877Z,2.21
2017-12-29T09:31:45.887Z,2.24
2017-12-29T09:32:46.268Z,2.35
2017-12-29T09:33:45.906Z,2.28
2017-12-29T09:35:45.926Z,2.41
2017-12-29T09:36:45.972Z,2.54
2017-12-29T09:37:45.948Z,2.41
2017-12-29T09:39:45.970Z,2.52
2017-12-29T09:40:45.982Z,2.49
2017-12-29T09:41:45.994Z,2.42
2017-12-29T09:42:46.007Z,2.48
2017-12-29T09:43:46.226Z,2.45
2017-12-29T09:44:46.020Z,2.57
2017-12-29T09:45:46.030Z,2.57
2017-12-29T09:46:46.059Z,2.56
2017-12-29T09:47:46.052Z,2.52
2017-12-29T09:48:46.057Z,2.59
2017-12-29T09:49:46.066Z,2.64
2017-12-29T09:50:46.077Z,2.64
2017-12-29T09:51:46.087Z,2.67
2017-12-29T09:52:46.101Z,2.61
2017-12-29T09:53:46.108Z,2.71
2017-12-29T09:54:46.117Z,2.72
2017-12-29T09:55:46.131Z,2.78
2017-12-29T09:56:46.144Z,2.71
2017-12-29T09:57:46.150Z,2.81
2017-12-29T09:58:46.160Z,2.71
2017-12-29T09:59:46.173Z,2.84
2017-12-29T10:00:46.186Z,2.85
2017-12-29T10:01:46.247Z,2.87
2017-12-29T10:02:46.203Z,2.92
2017-12-29T10:03:46.214Z,3.02
2017-12-29T10:04:46.225Z,3.02
2017-12-29T10:05:46.234Z,2.93
2017-12-29T10:06:46.246Z,3.05
2017-12-29T10:07:46.256Z,2.96
2017-12-29T10:08:46.267Z,3.08
2017-12-29T10:09:46.277Z,3.08
2017-12-29T10:10:46.291Z,3.11
2017-12-29T10:11:46.302Z,3.08
2017-12-29T10:12:46.309Z,3.15
2017-12-29T10:13:46.320Z,3.14
2017-12-29T10:14:46.333Z,3.18
2017-12-29T10:15:46.342Z,3.23
2017-12-29T10:16:46.354Z,3.29
2017-12-29T10:17:46.363Z,3.32
2017-12-29T10:18:46.378Z,3.31
2017-12-29T10:19:46.388Z,3.32
2017-12-29T10:20:46.396Z,3.33
2017-12-29T10:21:46.407Z,3.31
2017-12-29T10:22:46.416Z,3.33
2017-12-29T10:23:46.427Z,3.39
2017-12-29T10:24:46.439Z,3.47
2017-12-29T10:25:46.449Z,3.50
2017-12-29T10:26:46.465Z,3.52
2017-12-29T10:27:46.471Z,3.48
2017-12-29T10:28:46.487Z,3.55
2017-12-29T10:29:46.505Z,3.55
2017-12-29T10:30:46.504Z,3.69
2017-12-29T10:31:49.447Z,3.70
2017-12-29T10:32:46.526Z,3.57
2017-12-29T10:33:46.536Z,3.66
2017-12-29T10:35:46.665Z,3.66
2017-12-29T10:36:46.572Z,3.70
2017-12-29T10:37:46.580Z,3.79
2017-12-29T10:38:46.593Z,3.73
2017-12-29T10:39:46.603Z,3.84
2017-12-29T10:40:46.613Z,3.83
2017-12-29T10:41:46.624Z,3.84
2017-12-29T10:42:46.640Z,3.87
2017-12-29T10:43:46.646Z,3.86
2017-12-29T10:44:46.720Z,3.96
2017-12-29T10:45:46.668Z,3.94
2017-12-29T10:46:46.679Z,3.97
2017-12-29T10:47:46.691Z,3.88
2017-12-29T10:48:46.726Z,3.91
2017-12-29T10:49:46.713Z,3.93
2017-12-29T10:50:46.725Z,4.02
2017-12-29T10:51:46.735Z,3.93
2017-12-29T10:52:46.837Z,4.08
2017-12-29T10:53:46.757Z,4.02
2017-12-29T10:54:46.772Z,4.05
2017-12-29T10:55:46.781Z,4.12
2017-12-29T10:56:46.797Z,4.14
2017-12-29T10:57:46.802Z,4.11
2017-12-29T10:58:46.813Z,4.11
2017-12-29T10:59:46.825Z,4.15
2017-12-29T11:00:46.838Z,4.15
2017-12-29T11:01:46.848Z,4.14
2017-12-29T11:02:46.859Z,4.12
2017-12-29T11:03:46.870Z,4.11
2017-12-29T11:04:46.882Z,4.16
2017-12-29T11:05:46.893Z,4.26
2017-12-29T11:06:46.924Z,4.27
2017-12-29T11:07:46.918Z,4.20
2017-12-29T11:08:46.928Z,4.32
2017-12-29T11:09:46.944Z,4.30
2017-12-29T11:10:46.951Z,4.18
2017-12-29T11:11:46.963Z,4.33
2017-12-29T11:12:46.979Z,4.30
2017-12-29T11:13:46.984Z,4.30
2017-12-29T11:14:46.995Z,4.34
2017-12-29T11:15:47.446Z,4.29
2017-12-29T11:16:47.020Z,4.32
2017-12-29T11:17:47.031Z,4.27
2017-12-29T11:18:47.045Z,4.40
2017-12-29T11:19:47.059Z,4.48
2017-12-29T11:20:47.065Z,4.50
2017-12-29T11:21:47.084Z,4.52
2017-12-29T11:22:47.090Z,4.67
2017-12-29T11:23:47.200Z,4.66
2017-12-29T11:24:47.112Z,4.70
2017-12-29T11:25:47.122Z,4.73
2017-12-29T11:26:47.133Z,4.66
2017-12-29T11:27:47.145Z,4.63
2017-12-29T11:28:47.163Z,4.72
2017-12-29T11:29:47.172Z,4.84
2017-12-29T11:30:47.180Z,4.75
2017-12-29T11:31:47.203Z,4.85
2017-12-29T11:32:47.204Z,4.89
2017-12-29T11:33:47.215Z,4.89
2017-12-29T11:34:47.227Z,4.86
2017-12-29T11:35:47.238Z,4.75
2017-12-29T11:36:47.250Z,4.85
2017-12-29T11:37:47.262Z,4.85
2017-12-29T11:38:47.309Z,4.80
2017-12-29T11:39:47.285Z,4.82
2017-12-29T11:40:47.295Z,4.78
2017-12-29T11:41:47.309Z,4.86
2017-12-29T11:42:47.319Z,4.84
2017-12-29T11:43:47.344Z,4.82
2017-12-29T11:44:47.349Z,4.85
2017-12-29T11:45:47.354Z,4.73
2017-12-29T11:46:47.366Z,4.65
2017-12-29T11:47:47.379Z,4.77
2017-12-29T11:48:47.390Z,4.73
2017-12-29T11:49:47.401Z,4.80
2017-12-29T11:50:47.415Z,4.86
2017-12-29T11:51:47.426Z,4.80
2017-12-29T11:52:47.443Z,4.89
2017-12-29T11:53:47.447Z,4.88
2017-12-29T11:54:47.460Z,4.97
2017-12-29T11:55:47.472Z,5.03
2017-12-29T11:56:47.483Z,4.89
2017-12-29T11:57:47.494Z,5.02
2017-12-29T11:58:47.506Z,4.92
2017-12-29T11:59:47.519Z,4.96
2017-12-29T12:00:47.530Z,4.96
2017-12-29T12:01:47.541Z,4.97
2017-12-29T12:02:47.554Z,4.92
2017-12-29T12:03:47.569Z,4.97
2017-12-29T12:04:47.579Z,4.94
2017-12-29T12:05:47.589Z,4.92
2017-12-29T12:06:47.600Z,4.91
2017-12-29T12:07:47.612Z,4.85
2017-12-29T12:08:47.625Z,4.88
2017-12-29T12:09:47.649Z,4.94
2017-12-29T12:10:47.988Z,4.84
2017-12-29T12:11:47.659Z,4.75
2017-12-29T12:12:47.972Z,4.91
2017-12-29T12:13:47.684Z,4.84
2017-12-29T12:14:47.695Z,4.82
2017-12-29T12:15:47.708Z,4.91
2017-12-29T12:16:47.719Z,4.78
2017-12-29T12:17:47.730Z,4.88
2017-12-29T12:18:47.751Z,4.94
2017-12-29T12:19:47.755Z,4.96
2017-12-29T12:20:47.769Z,4.92
2017-12-29T12:21:47.781Z,4.96
2017-12-29T12:22:47.799Z,5.02
2017-12-29T12:23:47.803Z,4.86
2017-12-29T12:24:47.834Z,4.99
2017-12-29T12:25:47.825Z,5.02
2017-12-29T12:26:47.901Z,4.94
2017-12-29T12:27:47.849Z,4.99
2017-12-29T12:28:47.862Z,4.97
2017-12-29T12:29:47.871Z,5.07
2017-12-29T12:30:47.885Z,5.00
2017-12-29T12:31:47.900Z,5.06
2017-12-29T12:32:47.913Z,5.12
2017-12-29T12:33:47.921Z,5.07
2017-12-29T12:34:47.937Z,5.15
2017-12-29T12:35:47.944Z,5.09
2017-12-29T12:36:49.499Z,5.03
2017-12-29T12:37:47.971Z,5.03
2017-12-29T12:38:47.983Z,4.99
2017-12-29T12:39:47.996Z,4.94
2017-12-29T12:40:48.208Z,4.92
2017-12-29T12:41:48.019Z,4.89
2017-12-29T12:42:48.030Z,4.88
2017-12-29T12:43:48.041Z,4.84
2017-12-29T12:44:48.054Z,4.82
2017-12-29T12:45:48.065Z,4.86
2017-12-29T12:46:48.077Z,4.80
2017-12-29T12:47:48.094Z,4.73
2017-12-29T12:48:48.101Z,4.70
2017-12-29T12:49:48.113Z,4.66
2017-12-29T12:50:48.125Z,4.63
2017-12-29T12:51:48.147Z,4.66
2017-12-29T12:52:48.149Z,4.55
2017-12-29T12:53:48.161Z,4.65
2017-12-29T12:54:48.174Z,4.63
2017-12-29T12:55:48.184Z,4.54
2017-12-29T12:56:48.195Z,4.62
2017-12-29T12:57:48.206Z,4.59
2017-12-29T12:58:48.218Z,4.65
2017-12-29T12:59:48.231Z,4.59
2017-12-29T13:00:48.246Z,4.54
2017-12-29T13:01:48.258Z,4.62
2017-12-29T13:02:48.272Z,4.50
2017-12-29T13:03:48.281Z,4.51
2017-12-29T13:04:48.290Z,4.54
2017-12-29T13:05:48.302Z,4.52
2017-12-29T13:06:48.316Z,4.54
2017-12-29T13:07:48.330Z,4.58
2017-12-29T13:08:48.337Z,4.54
2017-12-29T13:09:48.348Z,4.52
2017-12-29T13:10:48.360Z,4.65
2017-12-29T13:11:48.372Z,4.51
2017-12-29T13:12:48.385Z,4.55
2017-12-29T13:13:48.396Z,4.50
2017-12-29T13:14:48.406Z,4.50
2017-12-29T13:15:48.419Z,4.58
2017-12-29T13:16:48.468Z,4.51
2017-12-29T13:17:48.493Z,4.60
2017-12-29T13:18:48.454Z,4.51
2017-12-29T13:19:48.466Z,4.52
2017-12-29T13:20:48.475Z,4.62
2017-12-29T13:21:48.490Z,4.52
2017-12-29T13:22:48.500Z,4.62
2017-12-29T13:23:48.514Z,4.52